createdAt,value
2018-06-28T00:02:26.910Z,3.50
2018-06-28T00:04:59.257Z,3.73
2018-06-28T00:07:31.622Z,3.50
2018-06-28T00:10:03.805Z,3.10
2018-06-28T00:12:35.988Z,3.10
2018-06-28T00:15:08.245Z,4.30
2018-06-28T00:17:40.413Z,3.80
2018-06-28T00:20:12.587Z,3.43
2018-06-28T00:22:44.699Z,3.57
2018-06-28T00:25:17.098Z,4.00
2018-06-28T00:27:49.217Z,4.20
2018-06-28T00:30:21.405Z,3.90
2018-06-28T00:32:53.701Z,4.03
2018-06-28T00:35:25.831Z,3.70
2018-06-28T00:37:57.956Z,3.70
2018-06-28T00:40:30.067Z,3.80
2018-06-28T00:43:02.236Z,3.73
2018-06-28T00:45:34.395Z,4.03
2018-06-28T00:48:06.776Z,3.67
2018-06-28T00:50:38.945Z,3.77
2018-06-28T00:53:11.151Z,3.87
2018-06-28T00:55:43.244Z,3.80
2018-06-28T00:58:15.669Z,3.90
2018-06-28T01:00:47.749Z,3.27
2018-06-28T01:03:19.905Z,3.70
2018-06-28T01:05:52.098Z,3.60
2018-06-28T01:08:24.220Z,4.00
2018-06-28T01:10:56.419Z,3.63
2018-06-28T01:13:28.516Z,4.17
2018-06-28T01:16:00.633Z,4.47
2018-06-28T01:18:32.725Z,4.50
2018-06-28T01:21:04.872Z,4.00
2018-06-28T01:23:36.964Z,4.37
2018-06-28T01:26:09.068Z,4.50
2018-06-28T01:28:41.150Z,4.70
2018-06-28T01:31:13.285Z,4.60
2018-06-28T01:33:45.404Z,5.40
2018-06-28T01:36:17.483Z,4.47
2018-06-28T01:38:49.577Z,5.40
2018-06-28T01:41:21.658Z,5.40
2018-06-28T01:43:53.688Z,4.57
2018-06-28T01:46:25.781Z,4.87
2018-06-28T01:48:57.835Z,4.23
2018-06-28T01:51:29.970Z,5.33
2018-06-28T01:54:02.073Z,4.80
2018-06-28T01:56:34.137Z,5.57
2018-06-28T01:59:06.195Z,4.60
2018-06-28T02:01:38.302Z,5.70
2018-06-28T02:04:10.403Z,5.30
2018-06-28T02:06:42.497Z,5.00
2018-06-28T02:09:14.580Z,5.27
2018-06-28T02:11:46.736Z,5.47
2018-06-28T02:14:18.808Z,5.10
2018-06-28T02:16:51.027Z,5.60
2018-06-28T02:19:23.133Z,5.50
2018-06-28T02:21:55.239Z,5.20
2018-06-28T02:24:27.675Z,5.07
2018-06-28T02:26:59.820Z,5.80
2018-06-28T02:29:31.988Z,6.10
2018-06-28T02:32:04.131Z,6.47
2018-06-28T02:34:36.278Z,5.77
2018-06-28T02:37:08.373Z,5.37
2018-06-28T02:39:40.535Z,5.73
2018-06-28T02:42:12.684Z,6.00
2018-06-28T02:44:44.824Z,6.10
2018-06-28T02:47:17.141Z,6.40
2018-06-28T02:49:49.291Z,6.37
2018-06-28T02:52:21.367Z,5.40
2018-06-28T02:54:53.536Z,5.27
2018-06-28T02:57:25.758Z,6.57
2018-06-28T02:59:58.157Z,6.77
2018-06-28T03:02:30.493Z,6.73
2018-06-28T03:05:02.732Z,6.47
2018-06-28T03:07:34.984Z,6.50
2018-06-28T03:10:07.122Z,6.10
2018-06-28T03:12:39.185Z,6.87
2018-06-28T03:15:11.267Z,6.00
2018-06-28T03:17:43.378Z,7.60
2018-06-28T03:20:15.505Z,7.00
2018-06-28T03:22:48.304Z,7.10
2018-06-28T03:25:20.411Z,6.67
2018-06-28T03:27:52.515Z,6.07
2018-06-28T03:30:24.629Z,6.70
2018-06-28T03:32:59.024Z,7.70
2018-06-28T03:35:32.994Z,6.40
2018-06-28T03:38:05.247Z,6.73
2018-06-28T03:40:37.214Z,5.73
2018-06-28T03:43:09.304Z,7.50
2018-06-28T03:45:41.399Z,7.00
2018-06-28T03:48:16.583Z,6.83
2018-06-28T03:50:55.697Z,7.40
2018-06-28T03:57:53.232Z,7.07
2018-06-28T04:00:25.219Z,6.53
2018-06-28T04:02:57.925Z,9.70
2018-06-28T04:05:29.985Z,7.70
2018-06-28T04:08:02.020Z,7.90
2018-06-28T04:10:34.092Z,7.70
2018-06-28T04:13:06.139Z,8.40
2018-06-28T04:15:38.143Z,7.60
2018-06-28T04:18:10.201Z,7.67
2018-06-28T04:20:42.215Z,7.33
2018-06-28T04:23:14.261Z,7.97
2018-06-28T04:25:46.493Z,7.53
2018-06-28T04:28:18.524Z,7.50
2018-06-28T04:30:50.524Z,7.70
2018-06-28T04:33:22.584Z,7.00
2018-06-28T04:35:54.616Z,8.37
2018-06-28T04:38:26.590Z,8.50
2018-06-28T04:40:58.631Z,8.00
2018-06-28T04:43:30.627Z,8.43
2018-06-28T04:46:02.645Z,8.00
2018-06-28T04:48:34.702Z,8.57
2018-06-28T04:51:06.722Z,7.73
2018-06-28T04:53:38.755Z,8.27
2018-06-28T04:56:10.860Z,8.37
2018-06-28T04:58:42.895Z,8.63
2018-06-28T05:01:14.928Z,8.40
2018-06-28T05:03:46.911Z,8.03
2018-06-28T05:06:18.911Z,8.57
2018-06-28T05:08:50.920Z,9.07
2018-06-28T05:11:22.965Z,7.50
2018-06-28T05:13:54.962Z,8.77
2018-06-28T05:16:26.950Z,8.73
2018-06-28T05:18:58.990Z,9.10
2018-06-28T05:21:31.091Z,8.17
2018-06-28T05:24:03.128Z,8.30
2018-06-28T05:26:35.116Z,8.73
2018-06-28T05:29:07.156Z,8.10
2018-06-28T05:31:39.156Z,8.93
2018-06-28T05:34:11.318Z,9.33
2018-06-28T05:36:43.287Z,8.30
2018-06-28T05:39:15.296Z,8.20
2018-06-28T05:41:47.295Z,8.30
2018-06-28T05:44:19.341Z,8.60
2018-06-28T05:46:51.403Z,8.60
2018-06-28T05:49:23.431Z,8.13
2018-06-28T05:51:55.431Z,8.33
2018-06-28T05:54:27.417Z,9.03
2018-06-28T05:56:59.546Z,8.47
2018-06-28T05:59:31.576Z,9.43
2018-06-28T06:02:03.731Z,8.50
2018-06-28T06:04:35.801Z,9.80
2018-06-28T06:07:07.778Z,9.00
2018-06-28T06:09:39.794Z,8.90
2018-06-28T06:12:11.837Z,8.47
2018-06-28T06:14:43.844Z,8.83
2018-06-28T06:17:15.867Z,9.00
2018-06-28T06:19:47.914Z,8.63
2018-06-28T06:22:19.939Z,8.40
2018-06-28T06:24:51.959Z,8.70
2018-06-28T06:27:24.960Z,9.13
2018-06-28T06:29:56.975Z,8.73
2018-06-28T06:32:28.988Z,8.17
2018-06-28T06:35:01.029Z,8.60
2018-06-28T06:37:33.035Z,8.00
2018-06-28T06:40:05.072Z,7.97
2018-06-28T06:42:37.060Z,8.03
2018-06-28T06:45:09.071Z,7.57
2018-06-28T06:47:41.068Z,7.73
2018-06-28T06:50:13.128Z,7.77
2018-06-28T06:52:45.218Z,8.50
2018-06-28T06:55:17.235Z,7.83
2018-06-28T06:57:49.253Z,8.40
2018-06-28T07:00:21.421Z,7.93
2018-06-28T07:02:53.303Z,8.27
2018-06-28T07:05:25.428Z,9.20
2018-06-28T07:08:04.124Z,8.90
2018-06-28T07:10:36.211Z,8.40
2018-06-28T07:13:08.234Z,7.97
2018-06-28T07:15:40.358Z,8.07
2018-06-28T07:18:12.318Z,14.40
2018-06-28T07:20:44.416Z,9.27
2018-06-28T07:23:16.480Z,8.10
2018-06-28T07:25:48.576Z,8.17
2018-06-28T07:28:20.741Z,8.70
2018-06-28T07:30:52.709Z,7.83
2018-06-28T07:33:24.733Z,7.80
2018-06-28T07:35:56.765Z,7.77
2018-06-28T07:38:28.765Z,7.97
2018-06-28T07:41:00.841Z,7.50
2018-06-28T07:43:32.852Z,7.90
2018-06-28T07:46:04.924Z,7.93
2018-06-28T07:48:36.927Z,7.67
2018-06-28T07:51:08.957Z,7.47
2018-06-28T07:53:40.975Z,7.50
2018-06-28T07:56:12.991Z,6.57
2018-06-28T07:58:45.019Z,7.23
2018-06-28T08:01:17.028Z,6.67
2018-06-28T08:03:49.326Z,7.40
2018-06-28T08:06:21.337Z,7.10
2018-06-28T08:08:53.346Z,7.00
2018-06-28T08:14:04.047Z,7.37
2018-06-28T08:16:36.088Z,7.00
2018-06-28T08:19:08.073Z,7.73
2018-06-28T08:21:40.081Z,7.40
2018-06-28T08:24:12.064Z,7.80
2018-06-28T08:26:44.123Z,7.40
2018-06-28T08:29:16.172Z,7.80
2018-06-28T08:31:48.171Z,7.80
2018-06-28T08:34:20.172Z,7.73
2018-06-28T08:36:52.242Z,8.07
2018-06-28T08:39:24.239Z,7.13
2018-06-28T08:41:56.320Z,8.37
2018-06-28T08:44:28.362Z,8.40
2018-06-28T08:47:00.411Z,8.40
2018-06-28T08:49:32.431Z,7.30
2018-06-28T08:52:04.528Z,7.37
2018-06-28T08:54:36.636Z,6.83
2018-06-28T08:57:08.664Z,7.63
2018-06-28T08:59:40.719Z,7.63
2018-06-28T09:02:12.760Z,7.87
2018-06-28T09:04:44.741Z,7.83
2018-06-28T09:07:16.815Z,7.90
2018-06-28T09:09:48.843Z,7.07
2018-06-28T09:12:20.952Z,7.10
2018-06-28T09:14:52.984Z,7.40
2018-06-28T09:17:25.095Z,7.40
2018-06-28T09:19:57.158Z,7.10
2018-06-28T09:22:29.245Z,7.57
2018-06-28T09:25:01.196Z,8.20
2018-06-28T09:27:33.190Z,8.60
2018-06-28T09:30:05.883Z,8.00
2018-06-28T09:32:37.915Z,7.73
2018-06-28T09:35:09.908Z,7.80
2018-06-28T09:37:41.959Z,8.97
2018-06-28T09:40:13.972Z,8.53
2018-06-28T09:42:46.047Z,8.67
2018-06-28T09:45:18.103Z,8.43
2018-06-28T09:47:50.195Z,9.17
2018-06-28T09:50:22.243Z,9.43
2018-06-28T09:52:54.222Z,8.57
2018-06-28T09:55:26.240Z,9.30
2018-06-28T09:57:58.262Z,9.87
2018-06-28T10:00:36.214Z,8.33
2018-06-28T10:03:08.127Z,9.83
2018-06-28T10:05:40.240Z,9.20
2018-06-28T10:08:13.386Z,9.40
2018-06-28T10:10:45.372Z,9.83
2018-06-28T10:13:17.433Z,8.30
2018-06-28T10:15:50.156Z,8.67
2018-06-28T10:18:22.197Z,8.60
2018-06-28T10:20:54.223Z,8.27
2018-06-28T10:23:26.239Z,8.10
2018-06-28T10:25:58.239Z,8.40
2018-06-28T10:28:30.262Z,7.80
2018-06-28T10:31:02.348Z,8.27
2018-06-28T10:33:34.373Z,7.93
2018-06-28T10:36:06.452Z,7.83
2018-06-28T10:38:38.486Z,7.30
2018-06-28T10:41:10.501Z,7.80
2018-06-28T10:43:42.530Z,7.87
2018-06-28T10:46:14.587Z,7.77
2018-06-28T10:48:46.596Z,7.80
2018-06-28T10:51:18.658Z,7.90
2018-06-28T10:53:50.655Z,8.20
2018-06-28T10:56:22.735Z,8.57
2018-06-28T10:58:54.727Z,8.53
2018-06-28T11:01:26.795Z,9.10
2018-06-28T11:03:58.868Z,9.63
2018-06-28T11:06:30.874Z,9.30
2018-06-28T11:09:05.203Z,9.80
2018-06-28T11:11:37.523Z,9.10
2018-06-28T11:14:09.567Z,9.33
2018-06-28T11:16:41.596Z,9.23
2018-06-28T11:19:13.612Z,11.13
2018-06-28T11:21:45.615Z,9.40
2018-06-28T11:24:17.663Z,9.03
2018-06-28T11:26:49.696Z,10.00
2018-06-28T11:29:21.694Z,10.33
2018-06-28T11:31:53.728Z,9.43
2018-06-28T11:34:25.726Z,9.20
2018-06-28T11:36:57.806Z,9.57
2018-06-28T11:39:29.829Z,9.67
2018-06-28T11:42:01.894Z,10.20
2018-06-28T11:44:33.930Z,10.37
2018-06-28T11:47:05.992Z,10.43
2018-06-28T11:49:38.054Z,10.20
2018-06-28T11:52:10.096Z,10.87
2018-06-28T11:54:42.082Z,11.00
2018-06-28T11:57:14.085Z,10.77
2018-06-28T11:59:46.115Z,11.10
2018-06-28T12:02:18.340Z,10.33
2018-06-28T12:04:50.408Z,10.60
2018-06-28T12:07:22.446Z,10.70
2018-06-28T12:09:54.444Z,9.47
2018-06-28T12:12:26.460Z,9.93
2018-06-28T12:14:58.496Z,10.40
2018-06-28T12:17:30.504Z,9.90
2018-06-28T12:20:02.590Z,9.50
2018-06-28T12:22:35.381Z,9.20
2018-06-28T12:25:07.429Z,9.27
2018-06-28T12:27:39.454Z,9.83
2018-06-28T12:30:11.498Z,9.23
2018-06-28T12:32:43.514Z,9.40
2018-06-28T12:35:15.595Z,9.50
2018-06-28T12:37:47.575Z,10.40
2018-06-28T12:40:19.626Z,11.03
2018-06-28T12:42:51.616Z,10.20
2018-06-28T12:45:23.659Z,10.40
2018-06-28T12:48:12.772Z,9.17
2018-06-28T12:50:44.786Z,10.47
2018-06-28T12:53:16.848Z,8.10
2018-06-28T12:56:22.358Z,8.77
2018-06-28T12:58:55.850Z,9.70
2018-06-28T13:01:28.233Z,9.00
2018-06-28T13:04:00.266Z,9.00
2018-06-28T13:06:32.311Z,8.97
2018-06-28T13:09:10.668Z,9.63
2018-06-28T13:11:42.713Z,9.43
2018-06-28T13:14:14.733Z,7.53
2018-06-28T13:16:46.999Z,7.30
2018-06-28T13:19:18.964Z,8.30
2018-06-28T13:21:50.963Z,6.73
2018-06-28T13:24:23.067Z,6.80
2018-06-28T13:26:55.149Z,6.40
2018-06-28T13:29:27.159Z,7.30
2018-06-28T13:31:59.196Z,7.07
2018-06-28T13:34:31.174Z,6.83
2018-06-28T13:37:03.331Z,6.37
2018-06-28T13:39:35.310Z,6.80
2018-06-28T13:42:07.398Z,6.80
2018-06-28T13:44:39.468Z,7.70
2018-06-28T13:47:11.498Z,7.60
2018-06-28T13:49:43.471Z,7.50
2018-06-28T13:52:15.454Z,7.37
2018-06-28T13:54:47.455Z,7.67
2018-06-28T13:57:19.532Z,7.83
2018-06-28T13:59:51.513Z,7.70
2018-06-28T14:02:23.510Z,7.90
2018-06-28T14:04:55.504Z,8.13
2018-06-28T14:07:27.499Z,8.03
2018-06-28T14:09:59.480Z,8.10
2018-06-28T14:12:31.504Z,7.63
2018-06-28T14:15:11.035Z,8.47
2018-06-28T14:17:43.019Z,7.63
2018-06-28T14:20:15.067Z,8.00
2018-06-28T14:22:47.309Z,8.13
2018-06-28T14:25:19.321Z,8.13
2018-06-28T14:27:51.322Z,7.93
2018-06-28T14:30:23.298Z,7.97
2018-06-28T14:32:55.280Z,8.37
2018-06-28T14:35:27.256Z,8.17
2018-06-28T14:37:59.277Z,7.93
2018-06-28T14:40:31.270Z,7.50
2018-06-28T14:43:03.283Z,7.97
2018-06-28T14:45:35.295Z,8.00
2018-06-28T14:48:07.306Z,8.07
2018-06-28T14:50:39.313Z,7.90
2018-06-28T14:53:11.367Z,8.20
2018-06-28T14:55:43.362Z,8.20
2018-06-28T14:58:15.343Z,8.00
2018-06-28T15:00:47.350Z,7.20
2018-06-28T15:03:19.347Z,8.20
2018-06-28T15:06:15.217Z,7.83
2018-06-28T15:08:47.426Z,8.70
2018-06-28T15:11:19.669Z,7.50
2018-06-28T15:13:53.152Z,8.23
2018-06-28T15:16:26.747Z,8.40
2018-06-28T15:18:59.652Z,8.47
2018-06-28T15:21:32.205Z,8.40
2018-06-28T15:24:04.496Z,9.37
2018-06-28T15:26:36.644Z,8.00
2018-06-28T15:29:09.870Z,7.97
2018-06-28T15:31:44.979Z,7.70
2018-06-28T15:34:22.790Z,8.30
2018-06-28T15:36:59.330Z,7.70
2018-06-28T15:39:32.772Z,8.63
2018-06-28T15:42:07.387Z,8.83
2018-06-28T15:44:39.853Z,8.93
2018-06-28T15:47:13.156Z,8.30
2018-06-28T15:49:45.470Z,8.60
2018-06-28T15:52:20.440Z,7.83
2018-06-28T15:54:53.985Z,8.30
2018-06-28T15:57:28.042Z,8.33
2018-06-28T16:00:01.392Z,8.73
2018-06-28T16:02:34.607Z,9.10
2018-06-28T16:05:09.815Z,8.37
2018-06-28T16:07:41.964Z,8.07
2018-06-28T16:10:14.845Z,8.77
2018-06-28T16:12:47.431Z,9.70
2018-06-28T16:15:20.280Z,8.47
2018-06-28T16:17:52.477Z,9.13
2018-06-28T16:20:28.631Z,9.03
2018-06-28T16:23:01.104Z,9.57
2018-06-28T16:25:37.640Z,9.27
2018-06-28T16:28:15.945Z,8.33
2018-06-28T16:30:55.184Z,9.50
2018-06-28T16:33:45.020Z,9.07
2018-06-28T16:36:17.945Z,9.47
2018-06-28T16:41:27.760Z,9.70
2018-06-28T16:44:01.080Z,9.13
2018-06-28T16:46:35.178Z,10.33
2018-06-28T16:49:09.516Z,9.87
2018-06-28T16:51:42.990Z,10.67
2018-06-28T16:54:23.136Z,10.43
2018-06-28T16:56:55.385Z,10.20
2018-06-28T16:59:28.333Z,10.47
2018-06-28T17:02:04.029Z,9.83
2018-06-28T17:04:36.120Z,9.90
2018-06-28T17:07:08.262Z,10.93
2018-06-28T17:09:40.451Z,9.47
2018-06-28T17:12:13.421Z,10.47
2018-06-28T17:14:45.654Z,10.23
2018-06-28T17:17:17.821Z,11.10
2018-06-28T17:19:49.883Z,10.23
2018-06-28T17:22:22.026Z,10.10
2018-06-28T17:24:54.191Z,12.03
2018-06-28T17:27:26.325Z,10.30
2018-06-28T17:29:58.537Z,10.57
2018-06-28T17:32:30.698Z,10.97
2018-06-28T17:35:06.104Z,10.73
2018-06-28T17:37:38.268Z,10.60
2018-06-28T17:40:11.014Z,11.73
2018-06-28T17:42:43.173Z,11.63
2018-06-28T17:45:17.410Z,10.47
2018-06-28T17:47:49.859Z,11.43
2018-06-28T17:50:21.955Z,11.13
2018-06-28T17:52:54.064Z,11.70
2018-06-28T17:55:26.220Z,11.70
2018-06-28T17:57:58.443Z,10.90
2018-06-28T18:00:31.649Z,10.80
2018-06-28T18:03:03.935Z,11.60
2018-06-28T18:05:36.242Z,11.10
2018-06-28T18:08:09.128Z,11.90
2018-06-28T18:10:42.114Z,10.90
2018-06-28T18:13:20.605Z,10.80
2018-06-28T18:15:52.936Z,10.80
2018-06-28T18:18:25.649Z,11.60
2018-06-28T18:21:00.520Z,10.80
2018-06-28T18:23:32.875Z,12.30
2018-06-28T18:26:07.283Z,12.27
2018-06-28T18:28:42.382Z,12.00
2018-06-28T18:31:25.170Z,11.60
2018-06-28T18:33:59.369Z,10.50
2018-06-28T18:36:44.138Z,11.03
2018-06-28T18:42:25.148Z,10.70
2018-06-28T18:48:03.951Z,11.47
2018-06-28T18:50:36.203Z,10.23
2018-06-28T18:53:08.421Z,10.23
2018-06-28T18:55:41.174Z,10.40
2018-06-28T18:58:14.591Z,10.80
2018-06-28T19:00:48.517Z,10.10
2018-06-28T19:03:24.566Z,10.37
2018-06-28T19:05:57.076Z,10.70
2018-06-28T19:08:48.697Z,10.47
2018-06-28T19:11:21.013Z,10.13
2018-06-28T19:14:01.901Z,10.07
2018-06-28T19:16:40.639Z,10.40
2018-06-28T19:19:14.332Z,10.93
2018-06-28T19:22:11.031Z,9.67
2018-06-28T19:24:43.316Z,10.30
2018-06-28T19:27:17.765Z,9.77
2018-06-28T19:29:55.512Z,9.57
2018-06-28T19:32:34.690Z,9.50
2018-06-28T19:35:06.911Z,10.00
2018-06-28T19:37:45.898Z,9.87
2018-06-28T19:40:30.288Z,8.93
2018-06-28T19:43:22.094Z,9.27
2018-06-28T19:48:55.217Z,10.00
2018-06-28T19:51:33.859Z,9.60
2018-06-28T19:54:06.149Z,10.57
2018-06-28T19:56:38.516Z,9.03
2018-06-28T20:02:31.329Z,9.70
2018-06-28T20:05:04.476Z,10.20
2018-06-28T20:07:36.637Z,10.13
2018-06-28T20:10:09.135Z,8.97
2018-06-28T20:12:46.785Z,9.40
2018-06-28T20:15:43.760Z,9.00
2018-06-28T20:18:37.601Z,8.77
2018-06-28T20:21:10.278Z,9.63
2018-06-28T20:23:43.420Z,9.00
2018-06-28T20:32:17.929Z,9.00
2018-06-28T20:34:50.106Z,9.13
2018-06-28T20:37:23.164Z,9.10
2018-06-28T20:39:55.453Z,8.63
2018-06-28T20:42:28.720Z,8.80
2018-06-28T20:51:00.176Z,9.13
2018-06-28T20:53:32.875Z,8.47
2018-06-28T20:56:24.806Z,9.53
2018-06-28T20:58:59.304Z,7.70
2018-06-28T21:01:43.400Z,8.30
2018-06-28T21:04:17.947Z,9.40
2018-06-28T21:06:50.200Z,8.40
2018-06-28T21:09:35.226Z,8.40
2018-06-28T21:12:09.436Z,8.97
2018-06-28T21:14:42.601Z,8.77
2018-06-28T21:17:16.474Z,9.27
2018-06-28T21:19:49.975Z,8.60
2018-06-28T21:22:23.629Z,8.90
2018-06-28T21:24:55.987Z,9.00
2018-06-28T21:27:40.756Z,9.20
2018-06-28T21:30:13.497Z,9.53
2018-06-28T21:32:45.826Z,9.43
2018-06-28T21:35:19.081Z,9.27
2018-06-28T21:37:53.742Z,9.13
2018-06-28T21:40:27.781Z,8.47
2018-06-28T21:43:00.413Z,9.00
2018-06-28T21:45:34.072Z,9.40
2018-06-28T21:48:28.936Z,8.50
2018-06-28T21:51:04.815Z,9.27
2018-06-28T21:53:38.260Z,9.37
2018-06-28T21:56:11.329Z,9.07
2018-06-28T21:58:47.301Z,9.40
2018-06-28T22:01:21.574Z,9.03
2018-06-28T22:03:54.149Z,8.30
2018-06-28T22:06:26.625Z,8.67
2018-06-28T22:09:00.485Z,9.80
2018-06-28T22:11:32.888Z,9.97
2018-06-28T22:14:10.493Z,8.90
2018-06-28T22:16:43.736Z,9.17
2018-06-28T22:19:16.210Z,8.83
2018-06-28T22:21:49.078Z,9.73
2018-06-28T22:24:26.336Z,9.90
2018-06-28T22:26:58.668Z,8.83
2018-06-28T22:29:31.519Z,9.27
2018-06-28T22:32:05.877Z,10.20
2018-06-28T22:34:38.222Z,9.00
2018-06-28T22:37:10.358Z,10.00
2018-06-28T22:39:42.547Z,9.33
2018-06-28T22:42:14.806Z,10.00
2018-06-28T22:44:47.009Z,10.90
2018-06-28T22:47:19.169Z,8.83
2018-06-28T22:49:51.560Z,9.33
2018-06-28T22:52:23.939Z,9.40
2018-06-28T22:54:56.613Z,9.37
2018-06-28T22:57:28.835Z,9.43
2018-06-28T23:00:01.096Z,10.20
2018-06-28T23:02:33.424Z,8.37
2018-06-28T23:05:05.693Z,8.80
2018-06-28T23:07:37.930Z,8.37
2018-06-28T23:10:10.202Z,8.83
2018-06-28T23:12:43.045Z,9.60
2018-06-28T23:15:15.324Z,9.30
2018-06-28T23:17:47.673Z,9.20
2018-06-28T23:20:20.010Z,8.50
2018-06-28T23:22:52.640Z,9.23
2018-06-28T23:25:24.978Z,9.03
2018-06-28T23:27:57.141Z,8.83
2018-06-28T23:30:29.357Z,9.83
2018-06-28T23:33:01.892Z,9.20
2018-06-28T23:35:34.163Z,8.47
2018-06-28T23:38:06.526Z,9.43
2018-06-28T23:40:38.807Z,8.53
2018-06-28T23:43:11.322Z,8.67
2018-06-28T23:45:44.515Z,8.47
2018-06-28T23:48:16.695Z,9.20
2018-06-28T23:50:49.013Z,9.87
2018-06-28T23:53:21.314Z,8.60
2018-06-28T23:55:53.499Z,9.30
2018-06-28T23:58:25.757Z,8.73
